createdAt,value
2022-12-08T00:01:19.068Z,57.90
2022-12-08T00:03:46.286Z,57.80
2022-12-08T00:06:45.299Z,57.10
2022-12-08T00:09:37.932Z,57.20
2022-12-08T00:12:08.243Z,57.00
2022-12-08T00:14:44.160Z,57.40
2022-12-08T00:17:13.205Z,57.00
2022-12-08T00:19:40.644Z,57.50
2022-12-08T00:22:08.861Z,57.70
2022-12-08T00:24:39.739Z,57.60
2022-12-08T00:27:09.105Z,57.40
2022-12-08T00:29:36.145Z,57.80
2022-12-08T00:32:03.194Z,57.70
2022-12-08T00:34:31.618Z,57.40
2022-12-08T00:36:58.830Z,57.30
2022-12-08T00:39:25.871Z,57.50
2022-12-08T00:42:11.501Z,57.90
2022-12-08T00:44:39.586Z,57.40
2022-12-08T00:47:06.485Z,57.60
2022-12-08T00:49:33.419Z,57.10
2022-12-08T00:52:00.353Z,57.50
2022-12-08T00:54:27.232Z,57.70
2022-12-08T00:56:54.524Z,57.10
2022-12-08T00:59:21.377Z,57.30
2022-12-08T01:01:48.389Z,57.30
2022-12-08T01:04:18.366Z,57.50
2022-12-08T01:06:46.348Z,57.30
2022-12-08T01:09:14.937Z,56.80
2022-12-08T01:11:42.184Z,57.70
2022-12-08T01:14:09.029Z,57.70
2022-12-08T01:16:36.992Z,57.30
2022-12-08T01:19:04.476Z,57.50
2022-12-08T01:21:31.364Z,57.60
2022-12-08T01:24:00.098Z,57.80
2022-12-08T01:26:26.986Z,57.60
2022-12-08T01:28:53.915Z,58.00
2022-12-08T01:31:22.302Z,57.40
2022-12-08T01:33:50.033Z,57.40
2022-12-08T01:36:21.981Z,58.30
2022-12-08T01:38:49.306Z,57.40
2022-12-08T01:41:18.277Z,57.20
2022-12-08T01:44:08.394Z,57.30
2022-12-08T01:46:47.358Z,57.70
2022-12-08T01:49:19.993Z,57.10
2022-12-08T01:51:56.628Z,57.60
2022-12-08T01:54:28.254Z,57.60
2022-12-08T01:57:06.845Z,57.50
2022-12-08T01:59:39.239Z,57.90
2022-12-08T02:02:06.185Z,58.00
2022-12-08T02:04:33.152Z,58.00
2022-12-08T02:07:06.363Z,58.10
2022-12-08T02:09:36.593Z,57.50
2022-12-08T02:12:04.316Z,57.90
2022-12-08T02:14:31.640Z,57.60
2022-12-08T02:17:30.693Z,57.60
2022-12-08T02:20:23.245Z,58.00
2022-12-08T02:22:50.076Z,57.60
2022-12-08T02:25:25.719Z,57.80
2022-12-08T02:28:30.352Z,57.60
2022-12-08T02:31:02.897Z,57.60
2022-12-08T02:34:13.561Z,57.50
2022-12-08T02:36:52.781Z,57.60
2022-12-08T02:39:51.101Z,58.40
2022-12-08T02:42:30.115Z,58.40
2022-12-08T02:45:20.993Z,57.50
2022-12-08T02:47:48.352Z,58.40
2022-12-08T02:50:15.583Z,57.80
2022-12-08T02:52:45.654Z,57.80
2022-12-08T02:55:22.766Z,58.00
2022-12-08T02:58:19.564Z,58.20
2022-12-08T03:01:09.230Z,58.40
2022-12-08T03:03:41.869Z,57.90
2022-12-08T03:06:28.531Z,58.10
2022-12-08T03:09:01.672Z,58.20
2022-12-08T03:11:44.615Z,58.00
2022-12-08T03:14:14.747Z,57.40
2022-12-08T03:16:43.916Z,57.90
2022-12-08T03:19:20.932Z,58.00
2022-12-08T03:21:52.719Z,58.00
2022-12-08T03:24:21.838Z,57.50
2022-12-08T03:26:59.952Z,57.80
2022-12-08T03:29:26.855Z,57.80
2022-12-08T03:32:03.368Z,58.00
2022-12-08T03:34:31.447Z,58.40
2022-12-08T03:37:01.150Z,57.60
2022-12-08T03:39:28.359Z,57.20
2022-12-08T03:41:55.266Z,57.40
2022-12-08T03:44:22.141Z,58.30
2022-12-08T03:46:49.023Z,57.50
2022-12-08T03:49:15.842Z,57.50
2022-12-08T03:51:42.803Z,57.10
2022-12-08T03:54:09.653Z,57.80
2022-12-08T03:56:38.701Z,57.90
2022-12-08T03:59:06.507Z,57.60
2022-12-08T04:01:34.063Z,57.50
2022-12-08T04:06:25.487Z,57.30
2022-12-08T04:08:53.150Z,57.90
2022-12-08T04:11:20.621Z,58.00
2022-12-08T04:13:47.889Z,58.10
2022-12-08T04:16:20.851Z,58.00
2022-12-08T04:18:47.869Z,58.30
2022-12-08T04:21:14.970Z,57.90
2022-12-08T04:23:42.001Z,58.00
2022-12-08T04:26:10.365Z,58.20
2022-12-08T04:28:37.626Z,57.90
2022-12-08T04:31:04.824Z,57.40
2022-12-08T04:33:32.072Z,57.30
2022-12-08T04:35:59.014Z,58.10
2022-12-08T04:38:26.043Z,57.70
2022-12-08T04:40:53.209Z,58.80
2022-12-08T04:43:20.110Z,57.80
2022-12-08T04:45:47.148Z,57.50
2022-12-08T04:48:14.622Z,57.60
2022-12-08T04:50:43.190Z,57.90
2022-12-08T04:53:11.363Z,57.40
2022-12-08T04:55:40.391Z,57.50
2022-12-08T04:58:07.477Z,57.90
2022-12-08T05:00:34.359Z,57.80
2022-12-08T05:03:01.346Z,58.10
2022-12-08T05:05:28.269Z,58.00
2022-12-08T05:07:55.272Z,58.40
2022-12-08T05:10:22.465Z,57.80
2022-12-08T05:12:49.342Z,57.90
2022-12-08T05:15:16.333Z,57.00
2022-12-08T05:17:43.234Z,58.20
2022-12-08T05:20:10.913Z,58.10
2022-12-08T05:22:37.813Z,57.90
2022-12-08T05:25:05.036Z,57.70
2022-12-08T05:27:31.959Z,57.80
2022-12-08T05:29:58.873Z,58.20
2022-12-08T05:32:25.746Z,57.30
2022-12-08T05:34:52.619Z,57.90
2022-12-08T05:37:19.657Z,57.10
2022-12-08T05:39:46.594Z,57.30
2022-12-08T05:42:13.431Z,57.90
2022-12-08T05:44:40.365Z,57.70
2022-12-08T05:47:07.328Z,57.90
2022-12-08T05:49:34.361Z,57.40
2022-12-08T05:52:01.182Z,57.80
2022-12-08T05:54:28.091Z,57.80
2022-12-08T05:56:55.021Z,58.30
2022-12-08T05:59:21.886Z,58.10
2022-12-08T06:01:48.995Z,57.50
2022-12-08T06:04:15.947Z,58.00
2022-12-08T06:06:42.883Z,58.00
2022-12-08T06:09:10.292Z,58.30
2022-12-08T06:11:37.192Z,58.90
2022-12-08T06:14:04.356Z,58.50
2022-12-08T06:16:31.503Z,59.60
2022-12-08T06:18:58.512Z,59.80
2022-12-08T06:21:25.408Z,60.40
2022-12-08T06:23:55.319Z,61.10
2022-12-08T06:26:22.737Z,60.70
2022-12-08T06:28:49.867Z,61.70
2022-12-08T06:31:18.460Z,61.20
2022-12-08T06:33:45.907Z,61.40
2022-12-08T06:36:15.136Z,61.60
2022-12-08T06:38:43.728Z,61.50
2022-12-08T06:41:11.992Z,60.90
2022-12-08T06:43:39.636Z,60.80
2022-12-08T06:46:08.784Z,61.80
2022-12-08T06:48:35.742Z,60.60
2022-12-08T06:51:10.722Z,60.90
2022-12-08T06:53:37.918Z,60.50
2022-12-08T06:56:05.818Z,59.90
2022-12-08T06:58:32.953Z,60.90
2022-12-08T07:01:05.521Z,58.40
2022-12-08T07:03:32.587Z,58.80
2022-12-08T07:06:03.782Z,59.00
2022-12-08T07:08:32.484Z,60.60
2022-12-08T07:10:59.449Z,60.40
2022-12-08T07:13:26.560Z,61.20
2022-12-08T07:15:53.500Z,62.50
2022-12-08T07:18:20.320Z,62.30
2022-12-08T07:20:47.213Z,61.00
2022-12-08T07:23:14.978Z,60.30
2022-12-08T07:25:42.017Z,59.00
2022-12-08T07:28:12.045Z,58.90
2022-12-08T07:30:39.476Z,58.60
2022-12-08T07:33:06.944Z,58.30
2022-12-08T07:35:35.220Z,58.40
2022-12-08T07:38:02.651Z,58.30
2022-12-08T07:40:29.632Z,58.10
2022-12-08T07:42:56.502Z,58.60
2022-12-08T07:45:29.771Z,57.70
2022-12-08T07:47:58.100Z,57.90
2022-12-08T07:50:25.051Z,57.80
2022-12-08T07:52:51.899Z,57.90
2022-12-08T07:55:18.800Z,57.60
2022-12-08T07:57:45.715Z,57.70
2022-12-08T08:00:13.293Z,57.90
2022-12-08T08:02:40.405Z,57.60
2022-12-08T08:05:08.137Z,57.10
2022-12-08T08:07:36.701Z,57.30
2022-12-08T08:10:04.337Z,57.80
2022-12-08T08:12:32.643Z,57.80
2022-12-08T08:15:05.378Z,57.30
2022-12-08T08:17:35.153Z,57.70
2022-12-08T08:20:03.931Z,57.60
2022-12-08T08:22:30.952Z,57.60
2022-12-08T08:24:57.834Z,57.20
2022-12-08T08:27:25.902Z,57.30
2022-12-08T08:29:53.486Z,56.40
2022-12-08T08:32:20.410Z,56.70
2022-12-08T08:34:47.287Z,56.60
2022-12-08T08:37:15.274Z,56.20
2022-12-08T08:39:43.130Z,56.50
2022-12-08T08:42:10.084Z,56.40
2022-12-08T08:44:39.107Z,56.40
2022-12-08T08:47:06.227Z,56.20
2022-12-08T08:49:33.141Z,56.90
2022-12-08T08:52:01.846Z,56.30
2022-12-08T08:54:29.578Z,56.70
2022-12-08T08:56:58.552Z,57.10
2022-12-08T08:59:26.037Z,56.70
2022-12-08T09:01:53.500Z,55.70
2022-12-08T09:04:21.361Z,55.80
2022-12-08T09:06:49.517Z,56.30
2022-12-08T09:09:16.743Z,56.50
2022-12-08T09:11:44.410Z,56.90
2022-12-08T09:14:12.992Z,56.20
2022-12-08T09:16:42.357Z,56.30
2022-12-08T09:19:09.953Z,56.80
2022-12-08T09:21:36.844Z,56.50
2022-12-08T09:24:03.953Z,56.20
2022-12-08T09:26:30.869Z,56.30
2022-12-08T09:28:58.644Z,56.10
2022-12-08T09:31:25.808Z,56.40
2022-12-08T09:33:52.922Z,56.80
2022-12-08T09:36:20.491Z,56.90
2022-12-08T09:38:47.910Z,55.60
2022-12-08T09:41:20.914Z,55.90
2022-12-08T09:44:01.198Z,56.10
2022-12-08T09:46:32.461Z,55.90
2022-12-08T09:49:00.670Z,56.40
2022-12-08T09:51:35.325Z,55.40
2022-12-08T09:54:12.699Z,55.40
2022-12-08T09:56:40.074Z,55.70
2022-12-08T09:59:23.871Z,56.00
2022-12-08T10:01:51.332Z,55.60
2022-12-08T10:04:34.102Z,55.70
2022-12-08T10:07:04.828Z,55.80
2022-12-08T10:09:32.616Z,56.00
2022-12-08T10:12:36.651Z,55.20
2022-12-08T10:15:18.342Z,55.70
2022-12-08T10:17:49.065Z,56.30
2022-12-08T10:20:24.077Z,55.70
2022-12-08T10:23:04.679Z,55.80
2022-12-08T10:25:39.330Z,55.00
2022-12-08T10:28:09.609Z,56.10
2022-12-08T10:30:36.581Z,55.70
2022-12-08T10:33:03.818Z,55.10
2022-12-08T10:35:46.791Z,55.30
2022-12-08T10:38:42.842Z,55.90
2022-12-08T10:41:09.666Z,55.20
2022-12-08T10:43:43.838Z,55.40
2022-12-08T10:46:31.287Z,55.70
2022-12-08T10:49:07.255Z,55.50
2022-12-08T10:51:34.071Z,55.40
2022-12-08T10:54:01.721Z,55.70
2022-12-08T10:56:31.400Z,55.80
2022-12-08T10:59:19.262Z,55.00
2022-12-08T11:01:51.272Z,55.20
2022-12-08T11:04:36.550Z,55.80
2022-12-08T11:07:06.258Z,55.20
2022-12-08T11:09:49.694Z,55.80
2022-12-08T11:12:20.989Z,55.50
2022-12-08T11:15:03.064Z,56.00
2022-12-08T11:17:39.452Z,55.40
2022-12-08T11:20:09.772Z,56.00
2022-12-08T11:22:44.424Z,55.00
2022-12-08T11:25:24.494Z,55.60
2022-12-08T11:27:54.674Z,55.60
2022-12-08T11:30:29.930Z,55.90
2022-12-08T11:33:19.596Z,55.30
2022-12-08T11:35:54.281Z,56.10
2022-12-08T11:38:24.541Z,56.00
2022-12-08T11:41:04.026Z,55.50
2022-12-08T11:43:34.307Z,54.90
2022-12-08T11:46:03.415Z,54.30
2022-12-08T11:49:05.674Z,55.00
2022-12-08T11:51:56.195Z,55.00
2022-12-08T11:54:38.769Z,55.20
2022-12-08T11:57:10.891Z,55.30
2022-12-08T11:59:47.208Z,55.00
2022-12-08T12:02:24.190Z,54.60
2022-12-08T12:05:47.575Z,54.00
2022-12-08T12:08:41.798Z,55.00
2022-12-08T12:11:55.390Z,55.50
2022-12-08T12:14:45.996Z,54.70
2022-12-08T12:18:00.027Z,54.70
2022-12-08T12:20:53.081Z,54.30
2022-12-08T12:23:22.669Z,55.70
2022-12-08T12:25:57.150Z,54.60
2022-12-08T12:28:31.381Z,55.20
2022-12-08T12:31:03.304Z,55.10
2022-12-08T12:33:33.820Z,55.30
2022-12-08T12:36:05.079Z,54.10
2022-12-08T12:38:55.494Z,54.60
2022-12-08T12:41:44.718Z,54.80
2022-12-08T12:44:14.742Z,54.20
2022-12-08T12:46:51.027Z,54.60
2022-12-08T12:49:39.639Z,54.40
2022-12-08T12:52:15.799Z,54.10
2022-12-08T12:55:02.849Z,54.40
2022-12-08T12:57:38.869Z,54.70
2022-12-08T13:00:07.673Z,55.20
2022-12-08T13:02:49.255Z,55.00
2022-12-08T13:05:28.904Z,54.40
2022-12-08T13:08:21.111Z,54.40
2022-12-08T13:11:04.224Z,54.80
2022-12-08T13:13:31.695Z,54.20
2022-12-08T13:16:18.843Z,55.50
2022-12-08T13:18:51.171Z,55.00
2022-12-08T13:21:23.760Z,54.80
2022-12-08T13:24:12.819Z,54.30
2022-12-08T13:26:48.063Z,54.80
2022-12-08T13:29:21.273Z,54.80
2022-12-08T13:31:59.829Z,54.80
2022-12-08T13:34:48.734Z,55.10
2022-12-08T13:37:50.704Z,54.60
2022-12-08T13:40:30.160Z,55.00
2022-12-08T13:43:13.445Z,55.00
2022-12-08T13:46:52.305Z,54.80
2022-12-08T13:50:05.266Z,54.70
2022-12-08T13:57:35.097Z,55.30
2022-12-08T14:00:16.206Z,54.50
2022-12-08T14:02:49.192Z,55.20
2022-12-08T14:05:19.777Z,54.40
2022-12-08T14:08:30.115Z,53.60
2022-12-08T14:11:06.224Z,54.10
2022-12-08T14:13:33.939Z,54.20
2022-12-08T14:16:03.674Z,53.60
2022-12-08T14:18:31.856Z,53.90
2022-12-08T14:21:31.262Z,54.30
2022-12-08T14:24:03.110Z,53.90
2022-12-08T14:26:34.393Z,53.90
2022-12-08T14:29:01.951Z,54.10
2022-12-08T14:31:29.283Z,54.40
2022-12-08T14:33:56.733Z,54.30
2022-12-08T14:36:23.925Z,54.00
2022-12-08T14:38:53.870Z,54.30
2022-12-08T14:41:28.089Z,54.60
2022-12-08T14:44:02.084Z,54.50
2022-12-08T14:46:29.159Z,54.20
2022-12-08T14:48:58.128Z,54.30
2022-12-08T14:51:30.977Z,54.10
2022-12-08T14:54:12.089Z,54.30
2022-12-08T14:56:40.340Z,54.60
2022-12-08T14:59:20.787Z,54.90
2022-12-08T15:01:51.793Z,54.60
2022-12-08T15:04:24.264Z,54.80
2022-12-08T15:07:13.281Z,54.70
2022-12-08T15:09:45.385Z,54.60
2022-12-08T15:12:12.222Z,54.60
2022-12-08T15:14:42.895Z,55.00
2022-12-08T15:17:30.420Z,55.00
2022-12-08T15:19:58.898Z,54.40
2022-12-08T15:22:26.810Z,54.80
2022-12-08T15:24:54.368Z,55.10
2022-12-08T15:27:24.496Z,54.80
2022-12-08T15:29:51.988Z,54.60
2022-12-08T15:32:23.732Z,54.90
2022-12-08T15:34:50.832Z,54.90
2022-12-08T15:37:26.462Z,55.10
2022-12-08T15:39:53.532Z,55.10
2022-12-08T15:42:20.416Z,55.20
2022-12-08T15:44:47.429Z,55.30
2022-12-08T15:47:23.740Z,55.30
2022-12-08T15:49:55.450Z,55.00
2022-12-08T15:52:24.490Z,55.10
2022-12-08T15:54:51.418Z,55.20
2022-12-08T15:58:04.076Z,55.30
2022-12-08T16:00:51.744Z,55.20
2022-12-08T16:04:13.082Z,55.10
2022-12-08T16:07:12.475Z,55.30
2022-12-08T16:09:14.494Z,55.60
2022-12-08T16:12:09.600Z,55.40
2022-12-08T16:17:25.114Z,55.70
2022-12-08T16:19:51.981Z,55.70
2022-12-08T16:25:22.346Z,55.50
2022-12-08T16:28:05.405Z,55.20
2022-12-08T16:30:39.290Z,56.30
2022-12-08T16:33:06.134Z,55.90
2022-12-08T16:35:33.221Z,55.90
2022-12-08T16:38:00.139Z,56.00
2022-12-08T16:40:27.164Z,56.00
2022-12-08T16:42:54.367Z,56.20
2022-12-08T16:45:24.076Z,56.10
2022-12-08T16:47:53.580Z,56.20
2022-12-08T16:50:26.834Z,56.40
2022-12-08T16:53:13.013Z,56.00
2022-12-08T16:55:40.093Z,56.20
2022-12-08T16:58:07.236Z,56.20
2022-12-08T17:00:37.902Z,56.20
2022-12-08T17:03:07.968Z,56.70
2022-12-08T17:05:35.086Z,56.60
2022-12-08T17:08:02.117Z,57.10
2022-12-08T17:10:32.133Z,56.50
2022-12-08T17:12:59.058Z,56.30
2022-12-08T17:15:26.181Z,56.20
2022-12-08T17:17:53.996Z,56.60
2022-12-08T17:20:27.689Z,56.70
2022-12-08T17:22:57.458Z,56.30
2022-12-08T17:25:27.891Z,56.70
2022-12-08T17:27:56.339Z,57.30
2022-12-08T17:30:23.652Z,56.90
2022-12-08T17:32:52.735Z,56.70
2022-12-08T17:35:19.818Z,56.70
2022-12-08T17:37:46.758Z,56.90
2022-12-08T17:40:13.992Z,56.90
2022-12-08T17:42:41.290Z,57.30
2022-12-08T17:45:09.167Z,57.00
2022-12-08T17:47:36.573Z,57.20
2022-12-08T17:50:04.950Z,57.30
2022-12-08T17:52:32.123Z,57.60
2022-12-08T17:54:59.001Z,57.40
2022-12-08T17:57:26.107Z,57.30
2022-12-08T17:59:53.010Z,57.40
2022-12-08T18:02:20.797Z,57.40
2022-12-08T18:04:47.873Z,57.10
2022-12-08T18:07:14.846Z,57.00
2022-12-08T18:09:42.084Z,57.10
2022-12-08T18:12:09.150Z,54.60
2022-12-08T18:14:36.000Z,54.80
2022-12-08T18:17:03.117Z,55.00
2022-12-08T18:19:30.113Z,55.10
2022-12-08T18:21:56.999Z,55.60
2022-12-08T18:24:24.069Z,55.70
2022-12-08T18:26:55.283Z,56.00
2022-12-08T18:29:23.217Z,56.90
2022-12-08T18:31:50.842Z,56.90
2022-12-08T18:34:19.101Z,57.30
2022-12-08T18:36:46.129Z,57.70
2022-12-08T18:39:24.917Z,57.50
2022-12-08T18:41:53.082Z,57.20
2022-12-08T18:44:19.998Z,58.30
2022-12-08T18:46:46.970Z,57.30
2022-12-08T18:49:18.922Z,54.90
2022-12-08T18:51:46.381Z,55.30
2022-12-08T18:54:13.557Z,56.20
2022-12-08T18:56:41.064Z,56.70
2022-12-08T18:59:10.606Z,55.50
2022-12-08T19:01:39.761Z,54.20
2022-12-08T19:06:56.639Z,59.70
2022-12-08T19:09:25.437Z,62.00
2022-12-08T19:11:52.739Z,62.80
2022-12-08T19:14:24.168Z,66.50
2022-12-08T19:16:54.662Z,64.60
2022-12-08T19:19:21.639Z,63.00
2022-12-08T19:21:48.541Z,62.30
2022-12-08T19:24:15.571Z,61.10
2022-12-08T19:26:43.010Z,60.70
2022-12-08T19:29:10.500Z,59.70
2022-12-08T19:31:37.700Z,59.90
2022-12-08T19:34:05.947Z,59.90
2022-12-08T19:36:35.607Z,59.40
2022-12-08T19:39:23.572Z,59.50
2022-12-08T19:42:09.267Z,59.00
2022-12-08T19:44:54.249Z,59.50
2022-12-08T19:47:26.356Z,59.10
2022-12-08T19:50:14.970Z,59.10
2022-12-08T19:52:42.543Z,58.90
2022-12-08T19:55:10.161Z,58.40
2022-12-08T19:57:37.045Z,59.00
2022-12-08T20:00:04.761Z,57.90
2022-12-08T20:02:36.840Z,58.80
2022-12-08T20:05:05.892Z,58.00
2022-12-08T20:07:33.393Z,58.20
2022-12-08T20:10:00.344Z,58.40
2022-12-08T20:12:27.213Z,58.40
2022-12-08T20:14:54.088Z,58.70
2022-12-08T20:17:21.078Z,58.30
2022-12-08T20:19:48.059Z,58.60
2022-12-08T20:22:14.997Z,58.50
2022-12-08T20:24:41.898Z,58.70
2022-12-08T20:27:08.984Z,58.70
2022-12-08T20:29:36.197Z,58.60
2022-12-08T20:32:03.393Z,58.20
2022-12-08T20:34:31.398Z,57.90
2022-12-08T20:36:58.573Z,57.90
2022-12-08T20:39:25.433Z,58.10
2022-12-08T20:41:54.570Z,57.60
2022-12-08T20:44:21.992Z,58.20
2022-12-08T20:46:49.788Z,58.10
2022-12-08T20:49:16.775Z,57.00
2022-12-08T20:51:44.473Z,56.50
2022-12-08T20:54:11.873Z,56.90
2022-12-08T20:56:43.420Z,57.00
2022-12-08T20:59:18.172Z,56.90
2022-12-08T21:01:45.300Z,57.50
2022-12-08T21:04:13.365Z,56.90
2022-12-08T21:06:40.629Z,57.00
2022-12-08T21:09:07.772Z,56.70
2022-12-08T21:11:35.879Z,57.20
2022-12-08T21:14:03.276Z,57.10
2022-12-08T21:16:30.297Z,57.80
2022-12-08T21:18:57.352Z,57.50
2022-12-08T21:21:24.551Z,58.20
2022-12-08T21:23:51.661Z,57.80
2022-12-08T21:26:23.386Z,57.90
2022-12-08T21:28:50.341Z,58.30
2022-12-08T21:31:21.580Z,57.80
2022-12-08T21:33:49.211Z,57.90
2022-12-08T21:36:19.060Z,57.90
2022-12-08T21:38:46.995Z,57.60
2022-12-08T21:41:16.853Z,57.40
2022-12-08T21:43:43.834Z,56.80
2022-12-08T21:46:19.261Z,56.80
2022-12-08T21:48:46.535Z,56.30
2022-12-08T21:51:13.605Z,56.30
2022-12-08T21:53:40.522Z,57.20
2022-12-08T21:56:10.431Z,58.00
2022-12-08T21:58:39.755Z,58.20
2022-12-08T22:01:08.466Z,58.70
2022-12-08T22:03:35.829Z,58.20
2022-12-08T22:06:10.856Z,58.10
2022-12-08T22:08:38.395Z,57.90
2022-12-08T22:11:06.054Z,58.10
2022-12-08T22:13:37.004Z,58.20
2022-12-08T22:16:07.235Z,58.50
2022-12-08T22:18:35.584Z,58.30
2022-12-08T22:21:17.197Z,58.20
2022-12-08T22:23:44.930Z,58.30
2022-12-08T22:26:12.698Z,58.00
2022-12-08T22:28:41.674Z,58.00
2022-12-08T22:31:09.456Z,58.20
2022-12-08T22:33:36.709Z,58.20
2022-12-08T22:36:10.100Z,58.40
2022-12-08T22:38:38.043Z,58.30
2022-12-08T22:41:06.369Z,58.70
2022-12-08T22:43:34.098Z,58.50
2022-12-08T22:46:01.359Z,58.90
2022-12-08T22:48:28.929Z,58.80
2022-12-08T22:51:00.088Z,58.70
2022-12-08T22:53:27.988Z,58.60
2022-12-08T22:55:55.274Z,58.50
2022-12-08T22:58:22.295Z,58.60
2022-12-08T23:00:49.652Z,58.20
2022-12-08T23:03:17.002Z,58.40
2022-12-08T23:05:44.454Z,58.20
2022-12-08T23:08:15.847Z,57.90
2022-12-08T23:10:44.338Z,58.00
2022-12-08T23:13:12.043Z,57.80
2022-12-08T23:15:40.113Z,58.00
2022-12-08T23:18:07.638Z,58.10
2022-12-08T23:20:35.645Z,58.00
2022-12-08T23:23:02.687Z,58.20
2022-12-08T23:25:29.876Z,58.00
2022-12-08T23:27:56.957Z,58.10
2022-12-08T23:30:25.099Z,58.20
2022-12-08T23:32:56.345Z,57.80
2022-12-08T23:35:23.381Z,58.50
2022-12-08T23:37:50.313Z,57.90
2022-12-08T23:40:17.193Z,57.50
2022-12-08T23:42:44.095Z,57.60
2022-12-08T23:45:11.590Z,57.80
2022-12-08T23:47:38.526Z,57.40
2022-12-08T23:50:07.133Z,57.10
2022-12-08T23:52:34.545Z,57.90
2022-12-08T23:55:01.502Z,57.80
2022-12-08T23:57:28.629Z,57.70
2022-12-08T23:59:55.508Z,57.80
